sensor_id;sensor_type;location;lat;lon;timestamp;temperature;humidity
36594;DHT22;22603;47.900;8.146;2023-01-09T00:00:51;4.50;99.90
36594;DHT22;22603;47.900;8.146;2023-01-09T00:03:39;4.50;99.90
36594;DHT22;22603;47.900;8.146;2023-01-09T00:06:27;4.60;99.90
36594;DHT22;22603;47.900;8.146;2023-01-09T00:09:15;4.80;99.90
36594;DHT22;22603;47.900;8.146;2023-01-09T00:12:01;4.80;99.90
36594;DHT22;22603;47.900;8.146;2023-01-09T00:14:49;4.90;99.90
36594;DHT22;22603;47.900;8.146;2023-01-09T00:17:36;4.90;99.90
36594;DHT22;22603;47.900;8.146;2023-01-09T00:20:23;4.90;99.90
36594;DHT22;22603;47.900;8.146;2023-01-09T00:23:11;4.90;99.90
36594;DHT22;22603;47.900;8.146;2023-01-09T00:26:03;4.90;99.90
36594;DHT22;22603;47.900;8.146;2023-01-09T00:28:51;5.00;99.90
36594;DHT22;22603;47.900;8.146;2023-01-09T00:31:38;5.00;99.90
36594;DHT22;22603;47.900;8.146;2023-01-09T00:34:26;5.00;99.90
36594;DHT22;22603;47.900;8.146;2023-01-09T00:37:13;5.00;99.90
36594;DHT22;22603;47.900;8.146;2023-01-09T00:40:02;5.00;99.90
36594;DHT22;22603;47.900;8.146;2023-01-09T00:42:52;5.00;99.90
36594;DHT22;22603;47.900;8.146;2023-01-09T00:45:41;4.90;99.90
36594;DHT22;22603;47.900;8.146;2023-01-09T00:48:28;4.90;99.90
36594;DHT22;22603;47.900;8.146;2023-01-09T00:51:16;4.90;99.90
36594;DHT22;22603;47.900;8.146;2023-01-09T00:54:05;4.90;99.90
36594;DHT22;22603;47.900;8.146;2023-01-09T00:56:54;4.90;99.90
36594;DHT22;22603;47.900;8.146;2023-01-09T00:59:42;4.90;99.90
36594;DHT22;22603;47.900;8.146;2023-01-09T01:02:29;5.00;99.90
36594;DHT22;22603;47.900;8.146;2023-01-09T01:05:17;4.90;99.90
36594;DHT22;22603;47.900;8.146;2023-01-09T01:08:21;4.90;99.90
36594;DHT22;22603;47.900;8.146;2023-01-09T01:11:09;4.80;99.90
36594;DHT22;22603;47.900;8.146;2023-01-09T01:13:59;4.80;99.90
36594;DHT22;22603;47.900;8.146;2023-01-09T01:16:47;4.80;99.90
36594;DHT22;22603;47.900;8.146;2023-01-09T01:19:34;4.70;99.90
36594;DHT22;22603;47.900;8.146;2023-01-09T01:22:21;4.70;99.90
36594;DHT22;22603;47.900;8.146;2023-01-09T01:25:09;4.70;99.90
36594;DHT22;22603;47.900;8.146;2023-01-09T01:27:56;4.60;99.90
36594;DHT22;22603;47.900;8.146;2023-01-09T01:30:44;4.50;99.90
36594;DHT22;22603;47.900;8.146;2023-01-09T01:33:32;4.50;99.90
36594;DHT22;22603;47.900;8.146;2023-01-09T01:36:19;4.40;99.90
36594;DHT22;22603;47.900;8.146;2023-01-09T01:39:06;4.40;99.90
36594;DHT22;22603;47.900;8.146;2023-01-09T01:41:54;4.30;99.90
36594;DHT22;22603;47.900;8.146;2023-01-09T01:45:00;4.20;99.90
36594;DHT22;22603;47.900;8.146;2023-01-09T01:47:52;4.20;99.90
36594;DHT22;22603;47.900;8.146;2023-01-09T01:50:43;4.20;99.90
36594;DHT22;22603;47.900;8.146;2023-01-09T01:53:35;4.20;99.90
36594;DHT22;22603;47.900;8.146;2023-01-09T01:56:25;4.20;99.90
36594;DHT22;22603;47.900;8.146;2023-01-09T01:59:17;4.10;99.90
36594;DHT22;22603;47.900;8.146;2023-01-09T02:02:05;4.10;99.90
36594;DHT22;22603;47.900;8.146;2023-01-09T02:04:56;4.20;99.90
36594;DHT22;22603;47.900;8.146;2023-01-09T02:07:44;4.20;99.90
36594;DHT22;22603;47.900;8.146;2023-01-09T02:10:32;4.20;99.90
36594;DHT22;22603;47.900;8.146;2023-01-09T02:13:19;4.20;99.90
36594;DHT22;22603;47.900;8.146;2023-01-09T02:16:18;4.30;99.90
36594;DHT22;22603;47.900;8.146;2023-01-09T02:19:22;4.30;99.90
36594;DHT22;22603;47.900;8.146;2023-01-09T02:22:23;4.30;99.90
36594;DHT22;22603;47.900;8.146;2023-01-09T02:25:36;4.30;99.90
36594;DHT22;22603;47.900;8.146;2023-01-09T02:31:52;4.40;99.90
36594;DHT22;22603;47.900;8.146;2023-01-09T02:34:46;4.40;99.90
36594;DHT22;22603;47.900;8.146;2023-01-09T02:37:40;4.40;99.90
36594;DHT22;22603;47.900;8.146;2023-01-09T02:40:33;4.40;99.90
36594;DHT22;22603;47.900;8.146;2023-01-09T02:43:26;4.40;99.90
36594;DHT22;22603;47.900;8.146;2023-01-09T02:46:20;4.20;99.90
36594;DHT22;22603;47.900;8.146;2023-01-09T02:49:10;4.20;99.90
36594;DHT22;22603;47.900;8.146;2023-01-09T02:52:06;4.10;99.90
36594;DHT22;22603;47.900;8.146;2023-01-09T02:55:02;4.00;99.90
36594;DHT22;22603;47.900;8.146;2023-01-09T02:57:58;3.90;99.90
36594;DHT22;22603;47.900;8.146;2023-01-09T03:00:57;3.90;99.90
36594;DHT22;22603;47.900;8.146;2023-01-09T03:03:51;3.90;99.90
36594;DHT22;22603;47.900;8.146;2023-01-09T03:06:47;3.90;99.90
36594;DHT22;22603;47.900;8.146;2023-01-09T03:09:40;3.80;99.90
36594;DHT22;22603;47.900;8.146;2023-01-09T03:12:30;3.90;99.90
36594;DHT22;22603;47.900;8.146;2023-01-09T03:15:20;3.80;99.90
36594;DHT22;22603;47.900;8.146;2023-01-09T03:18:10;3.80;99.90
36594;DHT22;22603;47.900;8.146;2023-01-09T03:21:00;3.80;99.90
36594;DHT22;22603;47.900;8.146;2023-01-09T03:23:53;3.80;99.90
36594;DHT22;22603;47.900;8.146;2023-01-09T03:26:41;3.80;99.90
36594;DHT22;22603;47.900;8.146;2023-01-09T03:29:28;3.90;99.90
36594;DHT22;22603;47.900;8.146;2023-01-09T03:32:15;3.90;99.90
36594;DHT22;22603;47.900;8.146;2023-01-09T03:35:03;3.90;99.90
36594;DHT22;22603;47.900;8.146;2023-01-09T03:37:50;3.90;99.90
36594;DHT22;22603;47.900;8.146;2023-01-09T03:40:39;3.80;99.90
36594;DHT22;22603;47.900;8.146;2023-01-09T03:43:28;3.60;99.90
36594;DHT22;22603;47.900;8.146;2023-01-09T03:46:15;3.60;99.90
36594;DHT22;22603;47.900;8.146;2023-01-09T03:49:02;3.50;99.90
36594;DHT22;22603;47.900;8.146;2023-01-09T03:51:50;3.50;99.90
36594;DHT22;22603;47.900;8.146;2023-01-09T03:54:36;3.40;99.90
36594;DHT22;22603;47.900;8.146;2023-01-09T03:57:25;3.40;99.90
36594;DHT22;22603;47.900;8.146;2023-01-09T04:00:13;3.40;99.90
36594;DHT22;22603;47.900;8.146;2023-01-09T04:02:59;3.40;99.90
36594;DHT22;22603;47.900;8.146;2023-01-09T04:05:47;3.30;99.90
36594;DHT22;22603;47.900;8.146;2023-01-09T04:08:34;3.20;99.90
36594;DHT22;22603;47.900;8.146;2023-01-09T04:11:22;3.10;99.90
36594;DHT22;22603;47.900;8.146;2023-01-09T04:14:10;3.10;99.90
36594;DHT22;22603;47.900;8.146;2023-01-09T04:16:57;3.00;99.90
36594;DHT22;22603;47.900;8.146;2023-01-09T04:19:44;2.90;99.90
36594;DHT22;22603;47.900;8.146;2023-01-09T04:22:31;2.80;99.90
36594;DHT22;22603;47.900;8.146;2023-01-09T04:25:18;2.70;99.90
36594;DHT22;22603;47.900;8.146;2023-01-09T04:28:07;2.60;99.90
36594;DHT22;22603;47.900;8.146;2023-01-09T04:30:55;2.60;99.90
36594;DHT22;22603;47.900;8.146;2023-01-09T04:33:42;2.60;99.90
36594;DHT22;22603;47.900;8.146;2023-01-09T04:36:29;2.50;99.90
36594;DHT22;22603;47.900;8.146;2023-01-09T04:39:19;2.40;99.90
36594;DHT22;22603;47.900;8.146;2023-01-09T04:42:06;2.30;99.90
36594;DHT22;22603;47.900;8.146;2023-01-09T04:44:53;2.20;99.90
36594;DHT22;22603;47.900;8.146;2023-01-09T04:47:42;2.10;99.90
36594;DHT22;22603;47.900;8.146;2023-01-09T04:50:29;2.00;99.90
36594;DHT22;22603;47.900;8.146;2023-01-09T04:53:16;2.00;99.90
36594;DHT22;22603;47.900;8.146;2023-01-09T04:56:03;2.00;99.90
36594;DHT22;22603;47.900;8.146;2023-01-09T04:58:50;1.90;99.90
36594;DHT22;22603;47.900;8.146;2023-01-09T05:01:37;1.90;99.90
36594;DHT22;22603;47.900;8.146;2023-01-09T05:04:26;1.90;99.90
36594;DHT22;22603;47.900;8.146;2023-01-09T05:07:13;2.00;99.90
36594;DHT22;22603;47.900;8.146;2023-01-09T05:10:03;2.00;99.90
36594;DHT22;22603;47.900;8.146;2023-01-09T05:12:50;2.00;99.90
36594;DHT22;22603;47.900;8.146;2023-01-09T05:15:37;1.90;99.90
36594;DHT22;22603;47.900;8.146;2023-01-09T05:18:24;1.90;99.90
36594;DHT22;22603;47.900;8.146;2023-01-09T05:21:13;1.90;99.90
36594;DHT22;22603;47.900;8.146;2023-01-09T05:24:00;1.90;99.90
36594;DHT22;22603;47.900;8.146;2023-01-09T05:26:47;1.80;99.90
36594;DHT22;22603;47.900;8.146;2023-01-09T05:29:34;1.90;99.90
36594;DHT22;22603;47.900;8.146;2023-01-09T05:32:21;1.80;99.90
36594;DHT22;22603;47.900;8.146;2023-01-09T05:35:08;1.90;99.90
36594;DHT22;22603;47.900;8.146;2023-01-09T05:37:58;1.90;99.90
36594;DHT22;22603;47.900;8.146;2023-01-09T05:40:45;1.90;99.90
36594;DHT22;22603;47.900;8.146;2023-01-09T05:43:32;2.00;99.90
36594;DHT22;22603;47.900;8.146;2023-01-09T05:46:19;2.00;99.90
36594;DHT22;22603;47.900;8.146;2023-01-09T05:49:07;2.00;99.90
36594;DHT22;22603;47.900;8.146;2023-01-09T05:51:54;2.00;99.90
36594;DHT22;22603;47.900;8.146;2023-01-09T05:54:43;2.00;99.90
36594;DHT22;22603;47.900;8.146;2023-01-09T05:57:30;2.00;99.90
36594;DHT22;22603;47.900;8.146;2023-01-09T06:00:18;2.00;99.90
36594;DHT22;22603;47.900;8.146;2023-01-09T06:03:05;2.00;99.90
36594;DHT22;22603;47.900;8.146;2023-01-09T06:05:53;2.00;99.90
36594;DHT22;22603;47.900;8.146;2023-01-09T06:08:40;2.00;99.90
36594;DHT22;22603;47.900;8.146;2023-01-09T06:11:29;1.90;99.90
36594;DHT22;22603;47.900;8.146;2023-01-09T06:14:16;1.90;99.90
36594;DHT22;22603;47.900;8.146;2023-01-09T06:17:03;2.00;99.90
36594;DHT22;22603;47.900;8.146;2023-01-09T06:19:49;2.00;99.90
36594;DHT22;22603;47.900;8.146;2023-01-09T06:22:38;2.00;99.90
36594;DHT22;22603;47.900;8.146;2023-01-09T06:25:25;2.00;99.90
36594;DHT22;22603;47.900;8.146;2023-01-09T06:28:13;2.00;99.90
36594;DHT22;22603;47.900;8.146;2023-01-09T06:31:01;2.00;99.90
36594;DHT22;22603;47.900;8.146;2023-01-09T06:33:48;2.00;99.90
36594;DHT22;22603;47.900;8.146;2023-01-09T06:36:35;2.00;99.90
36594;DHT22;22603;47.900;8.146;2023-01-09T06:39:22;2.00;99.90
36594;DHT22;22603;47.900;8.146;2023-01-09T06:42:10;2.00;99.90
36594;DHT22;22603;47.900;8.146;2023-01-09T06:44:58;2.00;99.90
36594;DHT22;22603;47.900;8.146;2023-01-09T06:47:45;2.00;99.90
36594;DHT22;22603;47.900;8.146;2023-01-09T06:50:32;2.00;99.90
36594;DHT22;22603;47.900;8.146;2023-01-09T06:53:20;2.00;99.90
36594;DHT22;22603;47.900;8.146;2023-01-09T06:56:07;2.00;99.90
36594;DHT22;22603;47.900;8.146;2023-01-09T06:58:54;2.10;99.90
36594;DHT22;22603;47.900;8.146;2023-01-09T07:01:43;2.10;99.90
36594;DHT22;22603;47.900;8.146;2023-01-09T07:04:30;2.10;99.90
36594;DHT22;22603;47.900;8.146;2023-01-09T07:07:17;2.00;99.90
36594;DHT22;22603;47.900;8.146;2023-01-09T07:10:06;2.10;99.90
36594;DHT22;22603;47.900;8.146;2023-01-09T07:12:53;2.10;99.90
36594;DHT22;22603;47.900;8.146;2023-01-09T07:15:40;2.10;99.90
36594;DHT22;22603;47.900;8.146;2023-01-09T07:18:28;2.10;99.90
36594;DHT22;22603;47.900;8.146;2023-01-09T07:21:15;2.20;99.90
36594;DHT22;22603;47.900;8.146;2023-01-09T07:24:02;2.20;99.90
36594;DHT22;22603;47.900;8.146;2023-01-09T07:26:50;2.20;99.90
36594;DHT22;22603;47.900;8.146;2023-01-09T07:29:37;2.20;99.90
36594;DHT22;22603;47.900;8.146;2023-01-09T07:32:24;2.20;99.90
36594;DHT22;22603;47.900;8.146;2023-01-09T07:35:12;2.20;99.90
36594;DHT22;22603;47.900;8.146;2023-01-09T07:38:00;2.20;99.90
36594;DHT22;22603;47.900;8.146;2023-01-09T07:40:47;2.20;99.90
36594;DHT22;22603;47.900;8.146;2023-01-09T07:43:34;2.20;99.90
36594;DHT22;22603;47.900;8.146;2023-01-09T07:46:21;2.20;99.90
36594;DHT22;22603;47.900;8.146;2023-01-09T07:49:09;2.20;99.90
36594;DHT22;22603;47.900;8.146;2023-01-09T07:51:57;2.30;99.90
36594;DHT22;22603;47.900;8.146;2023-01-09T07:54:44;2.30;99.90
36594;DHT22;22603;47.900;8.146;2023-01-09T07:57:31;2.30;99.90
36594;DHT22;22603;47.900;8.146;2023-01-09T08:00:19;2.30;99.90
36594;DHT22;22603;47.900;8.146;2023-01-09T08:03:06;2.40;99.90
36594;DHT22;22603;47.900;8.146;2023-01-09T08:05:53;2.40;99.90
36594;DHT22;22603;47.900;8.146;2023-01-09T08:08:42;2.40;99.90
36594;DHT22;22603;47.900;8.146;2023-01-09T08:11:29;2.50;99.90
36594;DHT22;22603;47.900;8.146;2023-01-09T08:14:16;2.40;99.90
36594;DHT22;22603;47.900;8.146;2023-01-09T08:17:03;2.40;99.90
36594;DHT22;22603;47.900;8.146;2023-01-09T08:19:50;2.50;99.90
36594;DHT22;22603;47.900;8.146;2023-01-09T08:22:37;2.50;99.90
36594;DHT22;22603;47.900;8.146;2023-01-09T08:25:26;2.50;99.90
36594;DHT22;22603;47.900;8.146;2023-01-09T08:28:13;2.50;99.90
36594;DHT22;22603;47.900;8.146;2023-01-09T08:31:00;2.50;99.90
36594;DHT22;22603;47.900;8.146;2023-01-09T08:33:47;2.50;99.90
36594;DHT22;22603;47.900;8.146;2023-01-09T08:36:33;2.60;99.90
36594;DHT22;22603;47.900;8.146;2023-01-09T08:39:21;2.60;99.90
36594;DHT22;22603;47.900;8.146;2023-01-09T08:42:09;2.60;99.90
36594;DHT22;22603;47.900;8.146;2023-01-09T08:45:22;2.60;99.90
36594;DHT22;22603;47.900;8.146;2023-01-09T08:48:27;2.60;99.90
36594;DHT22;22603;47.900;8.146;2023-01-09T08:51:14;2.60;99.90
36594;DHT22;22603;47.900;8.146;2023-01-09T08:54:01;2.60;99.90
36594;DHT22;22603;47.900;8.146;2023-01-09T08:56:49;2.60;99.90
36594;DHT22;22603;47.900;8.146;2023-01-09T08:59:37;2.60;99.90
36594;DHT22;22603;47.900;8.146;2023-01-09T09:02:24;2.70;99.90
36594;DHT22;22603;47.900;8.146;2023-01-09T09:05:12;2.70;99.90
36594;DHT22;22603;47.900;8.146;2023-01-09T09:07:59;2.80;99.90
36594;DHT22;22603;47.900;8.146;2023-01-09T09:10:46;2.80;99.90
36594;DHT22;22603;47.900;8.146;2023-01-09T09:13:33;2.80;99.90
36594;DHT22;22603;47.900;8.146;2023-01-09T09:16:22;2.80;99.90
36594;DHT22;22603;47.900;8.146;2023-01-09T09:19:09;2.90;99.90
36594;DHT22;22603;47.900;8.146;2023-01-09T09:21:56;2.90;99.90
36594;DHT22;22603;47.900;8.146;2023-01-09T09:24:43;2.90;99.90
36594;DHT22;22603;47.900;8.146;2023-01-09T09:27:30;2.90;99.90
36594;DHT22;22603;47.900;8.146;2023-01-09T09:30:18;2.90;99.90
36594;DHT22;22603;47.900;8.146;2023-01-09T09:33:06;3.00;99.90
36594;DHT22;22603;47.900;8.146;2023-01-09T09:35:54;3.00;99.90
36594;DHT22;22603;47.900;8.146;2023-01-09T09:38:40;3.00;99.90
36594;DHT22;22603;47.900;8.146;2023-01-09T09:42:02;3.00;99.90
36594;DHT22;22603;47.900;8.146;2023-01-09T09:45:21;2.90;99.90
36594;DHT22;22603;47.900;8.146;2023-01-09T09:48:21;2.90;99.90
36594;DHT22;22603;47.900;8.146;2023-01-09T09:51:36;3.00;99.90
36594;DHT22;22603;47.900;8.146;2023-01-09T09:54:32;3.00;99.90
36594;DHT22;22603;47.900;8.146;2023-01-09T09:57:25;3.00;99.90
36594;DHT22;22603;47.900;8.146;2023-01-09T10:00:16;3.00;99.90
36594;DHT22;22603;47.900;8.146;2023-01-09T10:03:06;3.10;99.90
36594;DHT22;22603;47.900;8.146;2023-01-09T10:06:04;3.00;99.90
36594;DHT22;22603;47.900;8.146;2023-01-09T10:08:57;3.00;99.90
36594;DHT22;22603;47.900;8.146;2023-01-09T10:11:53;3.00;99.90
36594;DHT22;22603;47.900;8.146;2023-01-09T10:14:42;3.00;99.90
36594;DHT22;22603;47.900;8.146;2023-01-09T10:17:42;3.00;99.90
36594;DHT22;22603;47.900;8.146;2023-01-09T10:20:48;3.10;99.90
36594;DHT22;22603;47.900;8.146;2023-01-09T10:24:00;3.20;99.90
36594;DHT22;22603;47.900;8.146;2023-01-09T10:26:51;3.10;99.90
36594;DHT22;22603;47.900;8.146;2023-01-09T10:29:47;3.10;99.90
36594;DHT22;22603;47.900;8.146;2023-01-09T10:32:47;3.20;99.90
36594;DHT22;22603;47.900;8.146;2023-01-09T10:35:53;3.20;99.90
36594;DHT22;22603;47.900;8.146;2023-01-09T10:38:47;3.30;99.90
36594;DHT22;22603;47.900;8.146;2023-01-09T10:41:39;3.30;99.90
36594;DHT22;22603;47.900;8.146;2023-01-09T10:44:29;3.40;99.90
36594;DHT22;22603;47.900;8.146;2023-01-09T10:47:27;3.40;99.90
36594;DHT22;22603;47.900;8.146;2023-01-09T10:50:23;3.40;99.90
36594;DHT22;22603;47.900;8.146;2023-01-09T10:53:17;3.50;99.90
36594;DHT22;22603;47.900;8.146;2023-01-09T10:56:14;3.70;99.90
36594;DHT22;22603;47.900;8.146;2023-01-09T10:59:03;3.80;99.90
36594;DHT22;22603;47.900;8.146;2023-01-09T11:01:52;3.70;99.90
36594;DHT22;22603;47.900;8.146;2023-01-09T11:04:40;3.70;99.90
36594;DHT22;22603;47.900;8.146;2023-01-09T11:07:30;3.70;99.90
36594;DHT22;22603;47.900;8.146;2023-01-09T11:10:18;3.70;99.90
36594;DHT22;22603;47.900;8.146;2023-01-09T11:13:13;3.70;99.90
36594;DHT22;22603;47.900;8.146;2023-01-09T11:16:06;3.60;99.90
36594;DHT22;22603;47.900;8.146;2023-01-09T11:18:55;3.50;99.90
36594;DHT22;22603;47.900;8.146;2023-01-09T11:21:44;3.30;99.90
36594;DHT22;22603;47.900;8.146;2023-01-09T11:24:31;3.20;99.90
36594;DHT22;22603;47.900;8.146;2023-01-09T11:27:23;3.10;99.90
36594;DHT22;22603;47.900;8.146;2023-01-09T11:30:22;2.90;99.90
36594;DHT22;22603;47.900;8.146;2023-01-09T11:33:14;2.80;99.90
36594;DHT22;22603;47.900;8.146;2023-01-09T11:36:07;2.70;99.90
36594;DHT22;22603;47.900;8.146;2023-01-09T11:38:57;2.60;99.90
36594;DHT22;22603;47.900;8.146;2023-01-09T11:41:45;2.50;99.90
36594;DHT22;22603;47.900;8.146;2023-01-09T11:44:34;2.50;99.90
36594;DHT22;22603;47.900;8.146;2023-01-09T11:47:36;2.40;99.90
36594;DHT22;22603;47.900;8.146;2023-01-09T11:50:26;2.20;99.90
36594;DHT22;22603;47.900;8.146;2023-01-09T11:53:15;2.30;99.90
36594;DHT22;22603;47.900;8.146;2023-01-09T11:56:03;2.30;99.90
36594;DHT22;22603;47.900;8.146;2023-01-09T11:58:50;2.40;99.90
36594;DHT22;22603;47.900;8.146;2023-01-09T12:05:00;2.40;99.90
36594;DHT22;22603;47.900;8.146;2023-01-09T12:08:04;2.30;99.90
36594;DHT22;22603;47.900;8.146;2023-01-09T12:11:09;2.30;99.90
36594;DHT22;22603;47.900;8.146;2023-01-09T12:14:14;2.20;99.90
36594;DHT22;22603;47.900;8.146;2023-01-09T12:17:17;2.20;99.90
36594;DHT22;22603;47.900;8.146;2023-01-09T12:20:20;2.30;99.90
36594;DHT22;22603;47.900;8.146;2023-01-09T12:23:22;2.40;99.90
36594;DHT22;22603;47.900;8.146;2023-01-09T12:26:15;2.60;99.90
36594;DHT22;22603;47.900;8.146;2023-01-09T12:32:48;3.10;99.90
36594;DHT22;22603;47.900;8.146;2023-01-09T12:35:43;3.10;99.90
36594;DHT22;22603;47.900;8.146;2023-01-09T12:38:40;3.00;99.90
36594;DHT22;22603;47.900;8.146;2023-01-09T12:42:02;2.80;99.90
36594;DHT22;22603;47.900;8.146;2023-01-09T12:44:57;2.70;99.90
36594;DHT22;22603;47.900;8.146;2023-01-09T12:47:47;2.70;99.90
36594;DHT22;22603;47.900;8.146;2023-01-09T12:51:00;2.80;99.90
36594;DHT22;22603;47.900;8.146;2023-01-09T12:53:51;2.80;99.90
36594;DHT22;22603;47.900;8.146;2023-01-09T12:56:46;2.70;99.90
36594;DHT22;22603;47.900;8.146;2023-01-09T12:59:39;2.80;99.90
36594;DHT22;22603;47.900;8.146;2023-01-09T13:02:30;2.90;99.90
36594;DHT22;22603;47.900;8.146;2023-01-09T13:05:21;3.10;99.90
36594;DHT22;22603;47.900;8.146;2023-01-09T13:08:16;3.20;99.90
36594;DHT22;22603;47.900;8.146;2023-01-09T13:11:07;3.30;99.90
36594;DHT22;22603;47.900;8.146;2023-01-09T13:14:12;3.30;99.90
36594;DHT22;22603;47.900;8.146;2023-01-09T13:17:03;3.30;99.90
36594;DHT22;22603;47.900;8.146;2023-01-09T13:19:51;3.30;99.90
36594;DHT22;22603;47.900;8.146;2023-01-09T13:22:39;3.20;99.90
36594;DHT22;22603;47.900;8.146;2023-01-09T13:25:35;3.20;99.90
36594;DHT22;22603;47.900;8.146;2023-01-09T13:28:26;3.10;99.90
36594;DHT22;22603;47.900;8.146;2023-01-09T13:31:38;3.00;99.90
36594;DHT22;22603;47.900;8.146;2023-01-09T13:34:30;3.00;99.90
36594;DHT22;22603;47.900;8.146;2023-01-09T13:37:21;3.00;99.90
36594;DHT22;22603;47.900;8.146;2023-01-09T13:40:25;2.90;99.90
36594;DHT22;22603;47.900;8.146;2023-01-09T13:43:15;2.90;99.90
36594;DHT22;22603;47.900;8.146;2023-01-09T13:46:02;2.80;99.90
36594;DHT22;22603;47.900;8.146;2023-01-09T13:48:50;2.70;99.90
36594;DHT22;22603;47.900;8.146;2023-01-09T13:51:56;2.60;99.90
36594;DHT22;22603;47.900;8.146;2023-01-09T13:55:23;2.50;99.90
36594;DHT22;22603;47.900;8.146;2023-01-09T13:58:23;2.30;99.90
36594;DHT22;22603;47.900;8.146;2023-01-09T14:01:39;2.30;99.90
36594;DHT22;22603;47.900;8.146;2023-01-09T14:04:41;2.20;99.90
36594;DHT22;22603;47.900;8.146;2023-01-09T14:07:29;2.30;99.90
36594;DHT22;22603;47.900;8.146;2023-01-09T14:10:22;2.30;99.90
36594;DHT22;22603;47.900;8.146;2023-01-09T14:13:14;2.40;99.90
36594;DHT22;22603;47.900;8.146;2023-01-09T14:16:05;2.40;99.90
36594;DHT22;22603;47.900;8.146;2023-01-09T14:18:58;2.30;99.90
36594;DHT22;22603;47.900;8.146;2023-01-09T14:21:50;2.20;99.90
36594;DHT22;22603;47.900;8.146;2023-01-09T14:24:40;2.10;99.90
36594;DHT22;22603;47.900;8.146;2023-01-09T14:28:02;2.00;99.90
36594;DHT22;22603;47.900;8.146;2023-01-09T14:31:08;1.80;99.90
36594;DHT22;22603;47.900;8.146;2023-01-09T14:34:16;1.80;99.90
36594;DHT22;22603;47.900;8.146;2023-01-09T14:37:16;1.70;99.90
36594;DHT22;22603;47.900;8.146;2023-01-09T14:40:07;1.60;99.90
36594;DHT22;22603;47.900;8.146;2023-01-09T14:43:11;1.60;99.90
36594;DHT22;22603;47.900;8.146;2023-01-09T14:46:05;1.60;99.90
36594;DHT22;22603;47.900;8.146;2023-01-09T14:49:05;1.60;99.90
36594;DHT22;22603;47.900;8.146;2023-01-09T14:51:52;1.70;99.90
36594;DHT22;22603;47.900;8.146;2023-01-09T14:54:42;1.80;99.90
36594;DHT22;22603;47.900;8.146;2023-01-09T14:57:31;1.80;99.90
36594;DHT22;22603;47.900;8.146;2023-01-09T15:00:19;1.90;99.90
36594;DHT22;22603;47.900;8.146;2023-01-09T15:03:08;1.90;99.90
36594;DHT22;22603;47.900;8.146;2023-01-09T15:05:59;1.90;99.90
36594;DHT22;22603;47.900;8.146;2023-01-09T15:08:49;1.90;99.90
36594;DHT22;22603;47.900;8.146;2023-01-09T15:11:39;1.90;99.90
36594;DHT22;22603;47.900;8.146;2023-01-09T15:14:32;1.90;99.90
36594;DHT22;22603;47.900;8.146;2023-01-09T15:17:22;1.90;99.90
36594;DHT22;22603;47.900;8.146;2023-01-09T15:20:17;1.90;99.90
36594;DHT22;22603;47.900;8.146;2023-01-09T15:23:21;1.90;99.90
36594;DHT22;22603;47.900;8.146;2023-01-09T15:26:13;1.90;99.90
36594;DHT22;22603;47.900;8.146;2023-01-09T15:29:04;1.90;99.90
36594;DHT22;22603;47.900;8.146;2023-01-09T15:31:57;1.90;99.90
36594;DHT22;22603;47.900;8.146;2023-01-09T15:34:48;1.90;99.90
36594;DHT22;22603;47.900;8.146;2023-01-09T15:37:37;1.90;99.90
36594;DHT22;22603;47.900;8.146;2023-01-09T15:40:31;1.80;99.90
36594;DHT22;22603;47.900;8.146;2023-01-09T15:43:19;1.80;99.90
36594;DHT22;22603;47.900;8.146;2023-01-09T15:46:08;1.80;99.90
36594;DHT22;22603;47.900;8.146;2023-01-09T15:48:58;1.80;99.90
36594;DHT22;22603;47.900;8.146;2023-01-09T15:51:46;1.70;99.90
36594;DHT22;22603;47.900;8.146;2023-01-09T15:54:34;1.70;99.90
36594;DHT22;22603;47.900;8.146;2023-01-09T15:57:31;1.70;99.90
36594;DHT22;22603;47.900;8.146;2023-01-09T16:00:38;1.70;99.90
36594;DHT22;22603;47.900;8.146;2023-01-09T16:03:27;1.70;99.90
36594;DHT22;22603;47.900;8.146;2023-01-09T16:06:19;1.70;99.90
36594;DHT22;22603;47.900;8.146;2023-01-09T16:09:14;1.70;99.90
36594;DHT22;22603;47.900;8.146;2023-01-09T16:12:03;1.60;99.90
36594;DHT22;22603;47.900;8.146;2023-01-09T16:14:54;1.60;99.90
36594;DHT22;22603;47.900;8.146;2023-01-09T16:18:03;1.70;99.90
36594;DHT22;22603;47.900;8.146;2023-01-09T16:21:00;1.70;99.90
36594;DHT22;22603;47.900;8.146;2023-01-09T16:23:55;1.70;99.90
36594;DHT22;22603;47.900;8.146;2023-01-09T16:26:43;1.70;99.90
36594;DHT22;22603;47.900;8.146;2023-01-09T16:29:35;1.70;99.90
36594;DHT22;22603;47.900;8.146;2023-01-09T16:32:26;1.70;99.90
36594;DHT22;22603;47.900;8.146;2023-01-09T16:35:16;1.70;99.90
36594;DHT22;22603;47.900;8.146;2023-01-09T16:38:09;1.70;99.90
36594;DHT22;22603;47.900;8.146;2023-01-09T16:41:11;1.70;99.90
36594;DHT22;22603;47.900;8.146;2023-01-09T16:44:17;1.70;99.90
36594;DHT22;22603;47.900;8.146;2023-01-09T16:47:04;1.70;99.90
36594;DHT22;22603;47.900;8.146;2023-01-09T16:49:52;1.60;99.90
36594;DHT22;22603;47.900;8.146;2023-01-09T16:52:40;1.60;99.90
36594;DHT22;22603;47.900;8.146;2023-01-09T16:55:30;1.60;99.90
36594;DHT22;22603;47.900;8.146;2023-01-09T16:58:24;1.60;99.90
36594;DHT22;22603;47.900;8.146;2023-01-09T17:01:11;1.60;99.90
36594;DHT22;22603;47.900;8.146;2023-01-09T17:03:59;1.70;99.90
36594;DHT22;22603;47.900;8.146;2023-01-09T17:06:48;1.70;99.90
36594;DHT22;22603;47.900;8.146;2023-01-09T17:09:38;1.70;99.90
36594;DHT22;22603;47.900;8.146;2023-01-09T17:12:25;1.80;99.90
36594;DHT22;22603;47.900;8.146;2023-01-09T17:15:12;1.80;99.90
36594;DHT22;22603;47.900;8.146;2023-01-09T17:18:00;1.70;99.90
36594;DHT22;22603;47.900;8.146;2023-01-09T17:20:49;1.70;99.90
36594;DHT22;22603;47.900;8.146;2023-01-09T17:23:41;1.70;99.90
36594;DHT22;22603;47.900;8.146;2023-01-09T17:26:28;1.70;99.90
36594;DHT22;22603;47.900;8.146;2023-01-09T17:29:33;1.70;99.90
36594;DHT22;22603;47.900;8.146;2023-01-09T17:32:21;1.70;99.90
36594;DHT22;22603;47.900;8.146;2023-01-09T17:35:10;1.70;99.90
36594;DHT22;22603;47.900;8.146;2023-01-09T17:37:58;1.70;99.90
36594;DHT22;22603;47.900;8.146;2023-01-09T17:40:48;1.60;99.90
36594;DHT22;22603;47.900;8.146;2023-01-09T17:43:35;1.60;99.90
36594;DHT22;22603;47.900;8.146;2023-01-09T17:46:25;1.60;99.90
36594;DHT22;22603;47.900;8.146;2023-01-09T17:49:15;1.60;99.90
36594;DHT22;22603;47.900;8.146;2023-01-09T17:52:02;1.50;99.90
36594;DHT22;22603;47.900;8.146;2023-01-09T17:54:49;1.50;99.90
36594;DHT22;22603;47.900;8.146;2023-01-09T17:57:42;1.50;99.90
36594;DHT22;22603;47.900;8.146;2023-01-09T18:00:32;1.50;99.90
36594;DHT22;22603;47.900;8.146;2023-01-09T18:03:21;1.50;99.90
36594;DHT22;22603;47.900;8.146;2023-01-09T18:06:11;1.40;99.90
36594;DHT22;22603;47.900;8.146;2023-01-09T18:08:59;1.50;99.90
36594;DHT22;22603;47.900;8.146;2023-01-09T18:11:46;1.50;99.90
36594;DHT22;22603;47.900;8.146;2023-01-09T18:14:35;1.50;99.90
36594;DHT22;22603;47.900;8.146;2023-01-09T18:17:23;1.50;99.90
36594;DHT22;22603;47.900;8.146;2023-01-09T18:20:11;1.50;99.90
36594;DHT22;22603;47.900;8.146;2023-01-09T18:22:58;1.40;99.90
36594;DHT22;22603;47.900;8.146;2023-01-09T18:25:46;1.40;99.90
36594;DHT22;22603;47.900;8.146;2023-01-09T18:28:35;1.40;99.90